sensor_id;sensor_type;location;lat;lon;timestamp;pressure;altitude;pressure_sealevel;temperature;humidity
11190;BME280;5651;50.926;4.718;2023-03-23T00:00:09;100169.78;;;13.32;100.00
11190;BME280;5651;50.926;4.718;2023-03-23T00:02:35;100173.88;;;13.43;100.00
11190;BME280;5651;50.926;4.718;2023-03-23T00:05:04;100156.53;;;13.39;100.00
11190;BME280;5651;50.926;4.718;2023-03-23T00:07:33;100167.72;;;13.44;100.00
11190;BME280;5651;50.926;4.718;2023-03-23T00:09:59;100169.41;;;13.46;100.00
11190;BME280;5651;50.926;4.718;2023-03-23T00:12:29;100158.97;;;13.45;100.00
11190;BME280;5651;50.926;4.718;2023-03-23T00:15:03;100142.41;;;13.44;100.00
11190;BME280;5651;50.926;4.718;2023-03-23T00:17:31;100157.09;;;13.50;100.00
11190;BME280;5651;50.926;4.718;2023-03-23T00:20:02;100142.34;;;13.47;100.00
11190;BME280;5651;50.926;4.718;2023-03-23T00:22:30;100144.91;;;13.49;100.00
11190;BME280;5651;50.926;4.718;2023-03-23T00:24:56;100146.53;;;13.53;100.00
11190;BME280;5651;50.926;4.718;2023-03-23T00:27:22;100156.31;;;13.46;100.00
11190;BME280;5651;50.926;4.718;2023-03-23T00:29:49;100146.78;;;13.44;100.00
11190;BME280;5651;50.926;4.718;2023-03-23T00:32:20;100148.44;;;13.48;100.00
11190;BME280;5651;50.926;4.718;2023-03-23T00:34:46;100144.09;;;13.47;100.00
11190;BME280;5651;50.926;4.718;2023-03-23T00:37:14;100138.03;;;13.45;100.00
11190;BME280;5651;50.926;4.718;2023-03-23T00:39:42;100129.13;;;13.52;100.00
11190;BME280;5651;50.926;4.718;2023-03-23T00:42:14;100119.59;;;13.50;100.00
11190;BME280;5651;50.926;4.718;2023-03-23T00:44:40;100130.66;;;13.59;100.00
11190;BME280;5651;50.926;4.718;2023-03-23T00:47:06;100146.44;;;13.56;100.00
11190;BME280;5651;50.926;4.718;2023-03-23T00:49:34;100126.44;;;13.55;100.00
11190;BME280;5651;50.926;4.718;2023-03-23T00:52:01;100103.31;;;13.40;100.00
11190;BME280;5651;50.926;4.718;2023-03-23T00:54:28;100117.09;;;13.45;100.00
11190;BME280;5651;50.926;4.718;2023-03-23T00:56:54;100114.38;;;13.50;100.00
11190;BME280;5651;50.926;4.718;2023-03-23T00:59:20;100115.34;;;13.45;100.00
11190;BME280;5651;50.926;4.718;2023-03-23T01:01:47;100129.19;;;13.49;100.00
11190;BME280;5651;50.926;4.718;2023-03-23T01:04:14;100138.75;;;13.52;100.00
11190;BME280;5651;50.926;4.718;2023-03-23T01:06:50;100131.78;;;13.51;100.00
11190;BME280;5651;50.926;4.718;2023-03-23T01:09:18;100157.00;;;13.53;100.00
11190;BME280;5651;50.926;4.718;2023-03-23T01:11:47;100136.84;;;13.57;100.00
11190;BME280;5651;50.926;4.718;2023-03-23T01:14:16;100135.97;;;13.56;100.00
11190;BME280;5651;50.926;4.718;2023-03-23T01:16:53;100145.72;;;13.51;100.00
11190;BME280;5651;50.926;4.718;2023-03-23T01:19:18;100161.13;;;13.62;100.00
11190;BME280;5651;50.926;4.718;2023-03-23T01:21:45;100159.50;;;13.58;100.00
11190;BME280;5651;50.926;4.718;2023-03-23T01:24:10;100161.34;;;13.54;100.00
11190;BME280;5651;50.926;4.718;2023-03-23T01:26:36;100146.44;;;13.56;100.00
11190;BME280;5651;50.926;4.718;2023-03-23T01:29:03;100160.47;;;13.54;100.00
11190;BME280;5651;50.926;4.718;2023-03-23T01:31:29;100147.44;;;13.52;100.00
11190;BME280;5651;50.926;4.718;2023-03-23T01:33:55;100132.59;;;13.53;100.00
11190;BME280;5651;50.926;4.718;2023-03-23T01:36:24;100137.03;;;13.49;100.00
11190;BME280;5651;50.926;4.718;2023-03-23T01:38:52;100132.63;;;13.51;100.00
11190;BME280;5651;50.926;4.718;2023-03-23T01:41:19;100120.56;;;13.45;100.00
11190;BME280;5651;50.926;4.718;2023-03-23T01:44:05;100102.03;;;13.53;100.00
11190;BME280;5651;50.926;4.718;2023-03-23T01:46:33;100103.97;;;13.46;100.00
11190;BME280;5651;50.926;4.718;2023-03-23T01:49:09;100101.34;;;13.48;100.00
11190;BME280;5651;50.926;4.718;2023-03-23T01:51:42;100090.25;;;13.37;100.00
11190;BME280;5651;50.926;4.718;2023-03-23T01:54:12;100086.94;;;13.31;100.00
11190;BME280;5651;50.926;4.718;2023-03-23T01:56:54;100074.56;;;13.37;100.00
11190;BME280;5651;50.926;4.718;2023-03-23T01:59:22;100085.00;;;13.40;100.00
11190;BME280;5651;50.926;4.718;2023-03-23T02:01:51;100091.91;;;13.41;100.00
11190;BME280;5651;50.926;4.718;2023-03-23T02:04:18;100084.03;;;13.42;100.00
11190;BME280;5651;50.926;4.718;2023-03-23T02:06:44;100094.38;;;13.47;100.00
11190;BME280;5651;50.926;4.718;2023-03-23T02:09:12;100091.66;;;13.50;100.00
11190;BME280;5651;50.926;4.718;2023-03-23T02:11:45;100085.88;;;13.39;100.00
11190;BME280;5651;50.926;4.718;2023-03-23T02:14:12;100100.47;;;13.47;100.00
11190;BME280;5651;50.926;4.718;2023-03-23T02:24:48;100104.06;;;13.43;100.00
11190;BME280;5651;50.926;4.718;2023-03-23T02:35:44;100102.31;;;13.44;100.00
11190;BME280;5651;50.926;4.718;2023-03-23T02:38:19;100109.34;;;13.42;100.00
11190;BME280;5651;50.926;4.718;2023-03-23T02:40:49;100104.03;;;13.45;99.31
11190;BME280;5651;50.926;4.718;2023-03-23T02:43:20;100112.72;;;13.45;99.12
11190;BME280;5651;50.926;4.718;2023-03-23T02:45:47;100121.53;;;13.43;98.22
11190;BME280;5651;50.926;4.718;2023-03-23T02:48:17;100118.06;;;13.42;97.67
11190;BME280;5651;50.926;4.718;2023-03-23T02:50:47;100111.09;;;13.41;97.61
11190;BME280;5651;50.926;4.718;2023-03-23T02:53:18;100102.31;;;13.44;98.06
11190;BME280;5651;50.926;4.718;2023-03-23T02:55:47;100118.81;;;13.46;97.01
11190;BME280;5651;50.926;4.718;2023-03-23T02:58:14;100115.25;;;13.49;97.03
11190;BME280;5651;50.926;4.718;2023-03-23T03:00:40;100117.94;;;13.45;96.72
11190;BME280;5651;50.926;4.718;2023-03-23T03:03:12;100118.16;;;13.38;96.39
11190;BME280;5651;50.926;4.718;2023-03-23T03:11:08;100124.19;;;13.41;96.28
11190;BME280;5651;50.926;4.718;2023-03-23T03:13:46;100108.63;;;13.35;96.90
11190;BME280;5651;50.926;4.718;2023-03-23T03:19:03;100123.31;;;13.41;96.04
11190;BME280;5651;50.926;4.718;2023-03-23T03:21:36;100124.34;;;13.35;95.98
11190;BME280;5651;50.926;4.718;2023-03-23T03:24:04;100122.50;;;13.37;95.77
11190;BME280;5651;50.926;4.718;2023-03-23T03:26:34;100113.88;;;13.34;95.83
11190;BME280;5651;50.926;4.718;2023-03-23T03:29:01;100123.50;;;13.33;95.76
11190;BME280;5651;50.926;4.718;2023-03-23T03:31:34;100107.03;;;13.29;96.29
11190;BME280;5651;50.926;4.718;2023-03-23T03:34:01;100113.94;;;13.32;96.43
11190;BME280;5651;50.926;4.718;2023-03-23T03:36:29;100105.94;;;13.40;95.73
11190;BME280;5651;50.926;4.718;2023-03-23T03:39:09;100107.59;;;13.42;95.50
11190;BME280;5651;50.926;4.718;2023-03-23T03:41:36;100108.66;;;13.34;95.76
11190;BME280;5651;50.926;4.718;2023-03-23T03:44:05;100113.09;;;13.31;95.82
11190;BME280;5651;50.926;4.718;2023-03-23T03:46:33;100111.38;;;13.30;95.90
11190;BME280;5651;50.926;4.718;2023-03-23T03:49:00;100106.97;;;13.32;96.18
11190;BME280;5651;50.926;4.718;2023-03-23T03:51:28;100116.66;;;13.29;96.42
11190;BME280;5651;50.926;4.718;2023-03-23T03:53:55;100132.22;;;13.34;96.37
11190;BME280;5651;50.926;4.718;2023-03-23T03:56:22;100121.72;;;13.35;96.58
11190;BME280;5651;50.926;4.718;2023-03-23T03:58:49;100122.91;;;13.23;96.79
11190;BME280;5651;50.926;4.718;2023-03-23T04:01:20;100114.03;;;13.29;96.95
11190;BME280;5651;50.926;4.718;2023-03-23T04:03:50;100124.34;;;13.35;96.31
11190;BME280;5651;50.926;4.718;2023-03-23T04:06:17;100127.78;;;13.36;96.10
11190;BME280;5651;50.926;4.718;2023-03-23T04:08:43;100121.91;;;13.29;96.70
11190;BME280;5651;50.926;4.718;2023-03-23T04:11:12;100133.94;;;13.35;96.36
11190;BME280;5651;50.926;4.718;2023-03-23T04:13:39;100121.19;;;13.22;97.42
11190;BME280;5651;50.926;4.718;2023-03-23T04:16:05;100122.97;;;13.20;97.65
11190;BME280;5651;50.926;4.718;2023-03-23T04:18:32;100135.16;;;13.21;97.99
11190;BME280;5651;50.926;4.718;2023-03-23T04:20:58;100129.88;;;13.23;97.25
11190;BME280;5651;50.926;4.718;2023-03-23T04:23:26;100132.47;;;13.24;97.03
11190;BME280;5651;50.926;4.718;2023-03-23T04:25:53;100133.44;;;13.20;96.73
11190;BME280;5651;50.926;4.718;2023-03-23T04:28:24;100134.41;;;13.18;96.94
11190;BME280;5651;50.926;4.718;2023-03-23T04:30:51;100129.28;;;13.13;97.14
11190;BME280;5651;50.926;4.718;2023-03-23T04:33:25;100133.69;;;13.11;96.89
11190;BME280;5651;50.926;4.718;2023-03-23T04:35:53;100146.75;;;13.12;97.38
11190;BME280;5651;50.926;4.718;2023-03-23T04:38:20;100145.16;;;13.07;96.26
11190;BME280;5651;50.926;4.718;2023-03-23T04:40:48;100131.34;;;13.00;96.99
11190;BME280;5651;50.926;4.718;2023-03-23T04:43:21;100149.38;;;13.12;96.15
11190;BME280;5651;50.926;4.718;2023-03-23T04:45:58;100146.88;;;13.08;95.96
11190;BME280;5651;50.926;4.718;2023-03-23T04:48:27;100145.94;;;13.10;95.66
11190;BME280;5651;50.926;4.718;2023-03-23T04:50:54;100150.22;;;13.13;96.01
11190;BME280;5651;50.926;4.718;2023-03-23T04:53:20;100146.81;;;13.09;94.22
11190;BME280;5651;50.926;4.718;2023-03-23T04:55:46;100145.88;;;13.12;94.48
11190;BME280;5651;50.926;4.718;2023-03-23T04:58:13;100156.16;;;13.20;94.88
11190;BME280;5651;50.926;4.718;2023-03-23T05:00:40;100144.31;;;13.06;94.48
11190;BME280;5651;50.926;4.718;2023-03-23T05:03:12;100141.34;;;13.19;94.23
11190;BME280;5651;50.926;4.718;2023-03-23T05:05:42;100148.31;;;13.18;93.77
11190;BME280;5651;50.926;4.718;2023-03-23T05:08:08;100146.69;;;13.14;93.72
11190;BME280;5651;50.926;4.718;2023-03-23T05:10:34;100151.09;;;13.12;93.87
11190;BME280;5651;50.926;4.718;2023-03-23T05:13:00;100151.00;;;13.16;93.14
11190;BME280;5651;50.926;4.718;2023-03-23T05:15:26;100149.28;;;13.15;93.69
11190;BME280;5651;50.926;4.718;2023-03-23T05:17:51;100142.38;;;13.13;93.34
11190;BME280;5651;50.926;4.718;2023-03-23T05:20:17;100144.19;;;13.09;93.35
11190;BME280;5651;50.926;4.718;2023-03-23T05:22:47;100145.38;;;12.97;94.27
11190;BME280;5651;50.926;4.718;2023-03-23T05:25:16;100143.81;;;12.90;95.09
11190;BME280;5651;50.926;4.718;2023-03-23T05:27:44;100139.22;;;13.00;94.18
11190;BME280;5651;50.926;4.718;2023-03-23T05:30:14;100141.03;;;12.96;95.00
11190;BME280;5651;50.926;4.718;2023-03-23T05:32:44;100149.75;;;12.97;94.84
11190;BME280;5651;50.926;4.718;2023-03-23T05:35:11;100147.16;;;12.97;95.57
11190;BME280;5651;50.926;4.718;2023-03-23T05:37:38;100135.81;;;12.96;94.86
11190;BME280;5651;50.926;4.718;2023-03-23T05:40:05;100154.13;;;12.96;95.23
11190;BME280;5651;50.926;4.718;2023-03-23T05:42:35;100162.28;;;12.84;96.82
11190;BME280;5651;50.926;4.718;2023-03-23T05:45:03;100163.81;;;12.93;96.37
11190;BME280;5651;50.926;4.718;2023-03-23T05:47:29;100169.13;;;12.90;96.64
11190;BME280;5651;50.926;4.718;2023-03-23T05:49:56;100156.22;;;12.82;97.41
11190;BME280;5651;50.926;4.718;2023-03-23T05:52:22;100156.22;;;12.83;96.91
11190;BME280;5651;50.926;4.718;2023-03-23T05:54:50;100161.47;;;12.82;97.30
11190;BME280;5651;50.926;4.718;2023-03-23T05:57:16;100163.91;;;12.88;96.17
11190;BME280;5651;50.926;4.718;2023-03-23T05:59:43;100169.19;;;12.87;96.46
11190;BME280;5651;50.926;4.718;2023-03-23T06:02:10;100178.81;;;12.86;96.94
11190;BME280;5651;50.926;4.718;2023-03-23T06:04:36;100171.19;;;12.77;97.26
11190;BME280;5651;50.926;4.718;2023-03-23T06:07:04;100164.38;;;12.70;98.15
11190;BME280;5651;50.926;4.718;2023-03-23T06:09:30;100170.91;;;12.88;96.63
11190;BME280;5651;50.926;4.718;2023-03-23T06:11:56;100170.34;;;12.75;98.02
11190;BME280;5651;50.926;4.718;2023-03-23T06:14:22;100172.03;;;12.77;97.65
11190;BME280;5651;50.926;4.718;2023-03-23T06:16:48;100185.03;;;12.80;97.13
11190;BME280;5651;50.926;4.718;2023-03-23T06:19:14;100187.66;;;12.80;96.70
11190;BME280;5651;50.926;4.718;2023-03-23T06:21:42;100190.22;;;12.82;97.08
11190;BME280;5651;50.926;4.718;2023-03-23T06:24:08;100179.75;;;12.82;96.34
11190;BME280;5651;50.926;4.718;2023-03-23T06:26:37;100175.69;;;12.72;97.73
11190;BME280;5651;50.926;4.718;2023-03-23T06:29:04;100191.28;;;12.75;97.45
11190;BME280;5651;50.926;4.718;2023-03-23T06:31:58;100177.31;;;12.76;96.83
11190;BME280;5651;50.926;4.718;2023-03-23T06:34:25;100169.63;;;12.70;97.43
11190;BME280;5651;50.926;4.718;2023-03-23T06:36:50;100188.66;;;12.75;97.94
11190;BME280;5651;50.926;4.718;2023-03-23T06:39:17;100198.06;;;12.83;96.86
11190;BME280;5651;50.926;4.718;2023-03-23T06:41:43;100191.94;;;12.83;96.51
11190;BME280;5651;50.926;4.718;2023-03-23T06:44:08;100198.06;;;12.82;96.72
11190;BME280;5651;50.926;4.718;2023-03-23T06:46:39;100187.44;;;12.88;96.63
11190;BME280;5651;50.926;4.718;2023-03-23T06:49:07;100203.13;;;12.88;96.82
11190;BME280;5651;50.926;4.718;2023-03-23T06:51:33;100190.78;;;12.95;96.10
11190;BME280;5651;50.926;4.718;2023-03-23T06:54:01;100196.91;;;12.94;95.79
11190;BME280;5651;50.926;4.718;2023-03-23T06:56:27;100205.59;;;12.96;95.14
11190;BME280;5651;50.926;4.718;2023-03-23T06:58:53;100218.66;;;12.96;94.71
11190;BME280;5651;50.926;4.718;2023-03-23T07:01:19;100216.09;;;12.94;94.92
11190;BME280;5651;50.926;4.718;2023-03-23T07:03:45;100215.16;;;12.97;95.66
11190;BME280;5651;50.926;4.718;2023-03-23T07:06:11;100208.25;;;12.93;95.61
11190;BME280;5651;50.926;4.718;2023-03-23T07:08:37;100217.78;;;12.95;96.40
11190;BME280;5651;50.926;4.718;2023-03-23T07:11:03;100212.69;;;12.91;96.04
11190;BME280;5651;50.926;4.718;2023-03-23T07:13:29;100214.44;;;12.90;96.32
11190;BME280;5651;50.926;4.718;2023-03-23T07:15:56;100217.03;;;12.90;97.31
11190;BME280;5651;50.926;4.718;2023-03-23T07:18:22;100218.91;;;12.85;97.78
11190;BME280;5651;50.926;4.718;2023-03-23T07:20:52;100223.09;;;12.92;98.54
11190;BME280;5651;50.926;4.718;2023-03-23T07:23:18;100250.97;;;12.93;98.40
11190;BME280;5651;50.926;4.718;2023-03-23T07:25:45;100252.81;;;12.50;100.00
11190;BME280;5651;50.926;4.718;2023-03-23T07:28:14;100267.84;;;12.41;100.00
11190;BME280;5651;50.926;4.718;2023-03-23T07:30:41;100267.31;;;12.25;100.00
11190;BME280;5651;50.926;4.718;2023-03-23T07:33:08;100277.69;;;12.28;100.00
11190;BME280;5651;50.926;4.718;2023-03-23T07:35:34;100275.50;;;12.08;100.00
11190;BME280;5651;50.926;4.718;2023-03-23T07:38:01;100274.88;;;11.93;100.00
11190;BME280;5651;50.926;4.718;2023-03-23T07:40:27;100271.00;;;11.69;100.00
11190;BME280;5651;50.926;4.718;2023-03-23T07:42:56;100291.94;;;11.64;100.00
11190;BME280;5651;50.926;4.718;2023-03-23T07:45:23;100299.91;;;11.58;100.00
11190;BME280;5651;50.926;4.718;2023-03-23T07:47:49;100295.75;;;11.45;100.00
11190;BME280;5651;50.926;4.718;2023-03-23T07:50:16;100289.81;;;11.38;100.00
11190;BME280;5651;50.926;4.718;2023-03-23T07:52:42;100294.31;;;11.26;100.00
11190;BME280;5651;50.926;4.718;2023-03-23T07:55:11;100296.28;;;11.14;100.00
11190;BME280;5651;50.926;4.718;2023-03-23T07:57:49;100299.91;;;11.03;100.00
11190;BME280;5651;50.926;4.718;2023-03-23T08:00:18;100295.63;;;10.99;100.00
11190;BME280;5651;50.926;4.718;2023-03-23T08:02:46;100294.72;;;11.00;100.00
11190;BME280;5651;50.926;4.718;2023-03-23T08:05:14;100286.75;;;11.13;100.00
11190;BME280;5651;50.926;4.718;2023-03-23T08:07:41;100286.84;;;11.06;100.00
11190;BME280;5651;50.926;4.718;2023-03-23T08:10:08;100281.34;;;11.23;100.00
11190;BME280;5651;50.926;4.718;2023-03-23T08:12:42;100287.44;;;11.22;100.00
11190;BME280;5651;50.926;4.718;2023-03-23T08:15:10;100283.16;;;11.20;100.00
11190;BME280;5651;50.926;4.718;2023-03-23T08:17:43;100302.88;;;11.35;100.00
11190;BME280;5651;50.926;4.718;2023-03-23T08:20:10;100305.44;;;11.38;100.00
11190;BME280;5651;50.926;4.718;2023-03-23T08:22:43;100314.81;;;11.50;100.00
11190;BME280;5651;50.926;4.718;2023-03-23T08:25:13;100308.72;;;11.49;100.00
11190;BME280;5651;50.926;4.718;2023-03-23T08:27:39;100313.06;;;11.50;100.00
11190;BME280;5651;50.926;4.718;2023-03-23T08:30:14;100311.94;;;11.64;100.00
11190;BME280;5651;50.926;4.718;2023-03-23T08:32:40;100318.84;;;11.68;100.00
11190;BME280;5651;50.926;4.718;2023-03-23T08:35:08;100305.56;;;11.82;100.00
11190;BME280;5651;50.926;4.718;2023-03-23T08:37:35;100323.84;;;11.80;100.00
11190;BME280;5651;50.926;4.718;2023-03-23T08:40:01;100332.34;;;11.90;100.00
11190;BME280;5651;50.926;4.718;2023-03-23T08:42:34;100329.66;;;11.96;100.00
11190;BME280;5651;50.926;4.718;2023-03-23T08:45:00;100335.75;;;11.97;100.00
11190;BME280;5651;50.926;4.718;2023-03-23T08:47:26;100343.59;;;11.95;100.00
11190;BME280;5651;50.926;4.718;2023-03-23T08:49:52;100328.78;;;11.99;100.00
11190;BME280;5651;50.926;4.718;2023-03-23T08:52:19;100341.06;;;11.91;100.00
11190;BME280;5651;50.926;4.718;2023-03-23T08:54:46;100328.06;;;11.87;100.00
11190;BME280;5651;50.926;4.718;2023-03-23T08:57:13;100323.84;;;11.80;100.00
11190;BME280;5651;50.926;4.718;2023-03-23T08:59:40;100322.22;;;11.73;100.00
11190;BME280;5651;50.926;4.718;2023-03-23T09:02:10;100330.78;;;11.81;100.00
11190;BME280;5651;50.926;4.718;2023-03-23T09:04:38;100332.63;;;11.74;100.00
11190;BME280;5651;50.926;4.718;2023-03-23T09:07:05;100331.72;;;11.79;100.00
11190;BME280;5651;50.926;4.718;2023-03-23T09:09:32;100333.41;;;11.81;100.00
11190;BME280;5651;50.926;4.718;2023-03-23T09:12:00;100340.34;;;11.82;100.00
11190;BME280;5651;50.926;4.718;2023-03-23T09:14:25;100326.69;;;11.68;100.00
11190;BME280;5651;50.926;4.718;2023-03-23T09:16:52;100332.47;;;11.85;100.00
11190;BME280;5651;50.926;4.718;2023-03-23T09:19:18;100337.69;;;11.85;100.00
11190;BME280;5651;50.926;4.718;2023-03-23T09:21:44;100342.72;;;11.95;100.00
11190;BME280;5651;50.926;4.718;2023-03-23T09:24:10;100348.81;;;11.95;100.00
11190;BME280;5651;50.926;4.718;2023-03-23T09:26:36;100346.28;;;11.91;100.00
11190;BME280;5651;50.926;4.718;2023-03-23T09:29:03;100346.22;;;11.94;100.00
11190;BME280;5651;50.926;4.718;2023-03-23T09:31:29;100347.22;;;11.88;100.00
11190;BME280;5651;50.926;4.718;2023-03-23T09:33:57;100347.34;;;11.80;100.00
11190;BME280;5651;50.926;4.718;2023-03-23T09:36:25;100342.41;;;11.63;100.00
11190;BME280;5651;50.926;4.718;2023-03-23T09:38:57;100345.69;;;11.74;100.00
11190;BME280;5651;50.926;4.718;2023-03-23T09:49:42;100328.81;;;11.94;100.00
11190;BME280;5651;50.926;4.718;2023-03-23T09:52:13;100343.00;;;11.81;100.00
11190;BME280;5651;50.926;4.718;2023-03-23T09:54:51;100338.50;;;11.87;100.00
11190;BME280;5651;50.926;4.718;2023-03-23T10:00:02;100336.53;;;12.03;100.00
11190;BME280;5651;50.926;4.718;2023-03-23T10:02:43;100339.72;;;12.18;100.00
11190;BME280;5651;50.926;4.718;2023-03-23T10:05:51;100342.91;;;12.32;100.00
11190;BME280;5651;50.926;4.718;2023-03-23T10:08:21;100352.34;;;12.40;100.00
11190;BME280;5651;50.926;4.718;2023-03-23T10:16:08;100348.78;;;12.86;100.00
11190;BME280;5651;50.926;4.718;2023-03-23T10:18:51;100349.47;;;12.94;100.00
11190;BME280;5651;50.926;4.718;2023-03-23T10:21:21;100351.94;;;13.00;100.00
11190;BME280;5651;50.926;4.718;2023-03-23T10:23:54;100342.16;;;13.07;100.00
11190;BME280;5651;50.926;4.718;2023-03-23T10:29:20;100338.50;;;13.14;100.00
11190;BME280;5651;50.926;4.718;2023-03-23T10:31:59;100333.84;;;13.27;100.00
11190;BME280;5651;50.926;4.718;2023-03-23T10:34:44;100331.78;;;13.42;100.00
11190;BME280;5651;50.926;4.718;2023-03-23T10:37:25;100341.88;;;13.59;100.00
11190;BME280;5651;50.926;4.718;2023-03-23T10:40:00;100335.19;;;13.47;100.00
11190;BME280;5651;50.926;4.718;2023-03-23T10:42:32;100340.72;;;13.69;100.00
11190;BME280;5651;50.926;4.718;2023-03-23T10:45:21;100350.88;;;13.82;100.00
11190;BME280;5651;50.926;4.718;2023-03-23T10:48:11;100354.78;;;14.00;100.00
11190;BME280;5651;50.926;4.718;2023-03-23T10:50:38;100356.44;;;14.02;100.00
11190;BME280;5651;50.926;4.718;2023-03-23T10:53:18;100347.75;;;14.00;100.00
11190;BME280;5651;50.926;4.718;2023-03-23T10:55:45;100350.63;;;13.91;100.00
11190;BME280;5651;50.926;4.718;2023-03-23T10:58:22;100350.19;;;14.08;100.00
11190;BME280;5651;50.926;4.718;2023-03-23T11:00:49;100341.72;;;14.30;100.00
11190;BME280;5651;50.926;4.718;2023-03-23T11:05:49;100344.91;;;14.72;100.00
11190;BME280;5651;50.926;4.718;2023-03-23T11:08:19;100345.28;;;14.88;100.00
11190;BME280;5651;50.926;4.718;2023-03-23T11:10:51;100342.72;;;14.87;100.00
11190;BME280;5651;50.926;4.718;2023-03-23T11:13:20;100336.22;;;14.99;99.84
11190;BME280;5651;50.926;4.718;2023-03-23T11:15:48;100341.84;;;15.15;100.00
11190;BME280;5651;50.926;4.718;2023-03-23T11:18:26;100350.66;;;15.12;100.00
11190;BME280;5651;50.926;4.718;2023-03-23T11:20:55;100351.50;;;15.14;100.00
11190;BME280;5651;50.926;4.718;2023-03-23T11:23:23;100349.66;;;15.16;99.18
11190;BME280;5651;50.926;4.718;2023-03-23T11:26:24;100350.38;;;15.21;97.30
11190;BME280;5651;50.926;4.718;2023-03-23T11:29:12;100328.00;;;15.10;97.02
11190;BME280;5651;50.926;4.718;2023-03-23T11:31:46;100334.19;;;15.07;98.06
11190;BME280;5651;50.926;4.718;2023-03-23T11:35:03;100330.72;;;15.07;93.71
11190;BME280;5651;50.926;4.718;2023-03-23T11:37:31;100334.78;;;15.17;95.15
11190;BME280;5651;50.926;4.718;2023-03-23T11:42:49;100330.94;;;15.27;94.84
11190;BME280;5651;50.926;4.718;2023-03-23T11:45:30;100321.19;;;15.58;94.06
11190;BME280;5651;50.926;4.718;2023-03-23T11:56:17;100298.16;;;15.91;89.94
11190;BME280;5651;50.926;4.718;2023-03-23T11:58:44;100292.16;;;15.88;92.39
11190;BME280;5651;50.926;4.718;2023-03-23T12:04:15;100300.03;;;16.13;91.21
11190;BME280;5651;50.926;4.718;2023-03-23T12:18:02;100307.66;;;16.67;88.84
11190;BME280;5651;50.926;4.718;2023-03-23T12:20:37;100315.16;;;16.54;86.93
11190;BME280;5651;50.926;4.718;2023-03-23T12:23:22;100308.66;;;16.16;85.31
11190;BME280;5651;50.926;4.718;2023-03-23T12:28:50;100298.31;;;16.12;83.44
11190;BME280;5651;50.926;4.718;2023-03-23T12:31:24;100293.56;;;16.22;86.26
11190;BME280;5651;50.926;4.718;2023-03-23T12:47:42;100286.75;;;17.08;78.52
11190;BME280;5651;50.926;4.718;2023-03-23T12:53:03;100302.13;;;16.97;78.64
11190;BME280;5651;50.926;4.718;2023-03-23T12:58:05;100299.19;;;17.04;76.48
11190;BME280;5651;50.926;4.718;2023-03-23T13:06:09;100320.06;;;17.52;74.17
11190;BME280;5651;50.926;4.718;2023-03-23T13:08:44;100334.09;;;17.09;73.43
11190;BME280;5651;50.926;4.718;2023-03-23T13:22:54;100348.53;;;16.52;81.07
11190;BME280;5651;50.926;4.718;2023-03-23T13:28:31;100325.34;;;16.85;81.90
11190;BME280;5651;50.926;4.718;2023-03-23T13:31:12;100314.59;;;17.14;81.66
11190;BME280;5651;50.926;4.718;2023-03-23T13:33:45;100306.16;;;17.69;80.64
11190;BME280;5651;50.926;4.718;2023-03-23T13:36:14;100277.69;;;17.98;76.66
11190;BME280;5651;50.926;4.718;2023-03-23T13:38:49;100276.91;;;18.35;76.43
11190;BME280;5651;50.926;4.718;2023-03-23T13:41:18;100278.19;;;18.82;72.84
11190;BME280;5651;50.926;4.718;2023-03-23T13:43:47;100257.88;;;19.21;73.05
11190;BME280;5651;50.926;4.718;2023-03-23T13:46:27;100263.84;;;19.42;71.30
11190;BME280;5651;50.926;4.718;2023-03-23T13:49:25;100252.13;;;19.82;69.89
11190;BME280;5651;50.926;4.718;2023-03-23T13:52:00;100267.09;;;19.65;71.97
11190;BME280;5651;50.926;4.718;2023-03-23T13:54:39;100271.53;;;20.16;69.48
11190;BME280;5651;50.926;4.718;2023-03-23T13:57:32;100271.59;;;20.14;69.23
11190;BME280;5651;50.926;4.718;2023-03-23T14:00:04;100278.09;;;20.08;64.50
11190;BME280;5651;50.926;4.718;2023-03-23T14:02:40;100288.78;;;19.72;66.50
11190;BME280;5651;50.926;4.718;2023-03-23T14:05:31;100275.72;;;19.16;67.55
11190;BME280;5651;50.926;4.718;2023-03-23T14:08:01;100274.25;;;18.55;66.84
11190;BME280;5651;50.926;4.718;2023-03-23T14:10:40;100258.66;;;17.91;69.70
11190;BME280;5651;50.926;4.718;2023-03-23T14:14:00;100247.78;;;17.78;69.97
11190;BME280;5651;50.926;4.718;2023-03-23T14:16:17;100252.91;;;17.62;71.26
11190;BME280;5651;50.926;4.718;2023-03-23T14:18:54;100260.81;;;17.62;70.94
11190;BME280;5651;50.926;4.718;2023-03-23T14:21:38;100251.91;;;17.44;71.35
11190;BME280;5651;50.926;4.718;2023-03-23T14:24:15;100280.38;;;17.14;69.42
11190;BME280;5651;50.926;4.718;2023-03-23T14:26:42;100283.19;;;16.87;69.17
11190;BME280;5651;50.926;4.718;2023-03-23T14:29:11;100275.47;;;16.60;72.34
11190;BME280;5651;50.926;4.718;2023-03-23T14:31:37;100267.19;;;16.47;74.45
11190;BME280;5651;50.926;4.718;2023-03-23T14:34:09;100260.41;;;16.18;77.15
11190;BME280;5651;50.926;4.718;2023-03-23T14:36:37;100254.28;;;16.17;76.44
11190;BME280;5651;50.926;4.718;2023-03-23T14:41:48;100244.34;;;16.02;76.27
11190;BME280;5651;50.926;4.718;2023-03-23T14:44:18;100241.22;;;16.15;76.35
11190;BME280;5651;50.926;4.718;2023-03-23T14:46:47;100248.59;;;16.29;76.09
11190;BME280;5651;50.926;4.718;2023-03-23T14:49:16;100253.84;;;16.29;77.15
11190;BME280;5651;50.926;4.718;2023-03-23T14:51:50;100250.06;;;16.37;76.96
11190;BME280;5651;50.926;4.718;2023-03-23T14:54:25;100243.81;;;16.39;77.14
11190;BME280;5651;50.926;4.718;2023-03-23T14:56:51;100233.41;;;16.36;77.82
11190;BME280;5651;50.926;4.718;2023-03-23T14:59:17;100229.22;;;16.08;80.01
11190;BME280;5651;50.926;4.718;2023-03-23T15:01:46;100222.19;;;16.09;80.30
11190;BME280;5651;50.926;4.718;2023-03-23T15:04:17;100211.28;;;15.96;82.09
11190;BME280;5651;50.926;4.718;2023-03-23T15:06:55;100204.88;;;16.03;81.53